sensor_id;sensor_type;location;lat;lon;timestamp;temperature;humidity
20858;DHT22;10589;53.636;10.012;2023-12-07T04:46:45;0.70;99.90
20858;DHT22;10589;53.636;10.012;2023-12-07T04:49:11;0.80;99.90
20858;DHT22;10589;53.636;10.012;2023-12-07T04:51:37;0.90;99.90
20858;DHT22;10589;53.636;10.012;2023-12-07T04:54:02;0.90;99.90
20858;DHT22;10589;53.636;10.012;2023-12-07T04:56:28;1.00;99.90
20858;DHT22;10589;53.636;10.012;2023-12-07T04:58:54;1.10;99.90
20858;DHT22;10589;53.636;10.012;2023-12-07T05:01:19;1.10;99.90
20858;DHT22;10589;53.636;10.012;2023-12-07T05:03:45;1.00;99.90
20858;DHT22;10589;53.636;10.012;2023-12-07T05:06:11;1.20;99.90
20858;DHT22;10589;53.636;10.012;2023-12-07T05:08:38;1.30;99.90
20858;DHT22;10589;53.636;10.012;2023-12-07T05:11:04;1.20;99.90
20858;DHT22;10589;53.636;10.012;2023-12-07T05:13:30;1.20;99.90
20858;DHT22;10589;53.636;10.012;2023-12-07T05:15:56;1.20;99.90
20858;DHT22;10589;53.636;10.012;2023-12-07T05:18:22;1.40;99.90
20858;DHT22;10589;53.636;10.012;2023-12-07T05:20:48;1.30;99.90
20858;DHT22;10589;53.636;10.012;2023-12-07T05:23:13;1.30;99.90
20858;DHT22;10589;53.636;10.012;2023-12-07T05:25:39;1.40;99.90
20858;DHT22;10589;53.636;10.012;2023-12-07T05:28:05;1.30;99.90
20858;DHT22;10589;53.636;10.012;2023-12-07T05:30:30;1.30;99.90
20858;DHT22;10589;53.636;10.012;2023-12-07T05:32:56;1.20;99.90
20858;DHT22;10589;53.636;10.012;2023-12-07T05:35:21;1.30;99.90
20858;DHT22;10589;53.636;10.012;2023-12-07T05:37:48;1.30;99.90
20858;DHT22;10589;53.636;10.012;2023-12-07T05:40:14;1.30;99.90
20858;DHT22;10589;53.636;10.012;2023-12-07T05:42:41;1.30;99.90
20858;DHT22;10589;53.636;10.012;2023-12-07T05:45:07;1.30;99.90
20858;DHT22;10589;53.636;10.012;2023-12-07T05:47:34;1.40;99.90
20858;DHT22;10589;53.636;10.012;2023-12-07T05:50:00;1.50;99.90
20858;DHT22;10589;53.636;10.012;2023-12-07T05:52:28;1.50;99.90
20858;DHT22;10589;53.636;10.012;2023-12-07T05:54:54;1.40;99.90
20858;DHT22;10589;53.636;10.012;2023-12-07T05:57:19;1.40;99.90
20858;DHT22;10589;53.636;10.012;2023-12-07T05:59:45;1.40;99.90
20858;DHT22;10589;53.636;10.012;2023-12-07T06:02:11;1.40;99.90
20858;DHT22;10589;53.636;10.012;2023-12-07T06:04:37;1.40;99.90
20858;DHT22;10589;53.636;10.012;2023-12-07T06:07:03;1.50;99.90
20858;DHT22;10589;53.636;10.012;2023-12-07T06:09:28;1.40;99.90
20858;DHT22;10589;53.636;10.012;2023-12-07T06:11:55;1.20;99.90
20858;DHT22;10589;53.636;10.012;2023-12-07T06:14:21;1.20;99.90
20858;DHT22;10589;53.636;10.012;2023-12-07T06:16:48;1.20;99.90
20858;DHT22;10589;53.636;10.012;2023-12-07T06:19:14;1.10;99.90
20858;DHT22;10589;53.636;10.012;2023-12-07T06:21:39;1.10;99.90
20858;DHT22;10589;53.636;10.012;2023-12-07T06:24:05;1.10;99.90
20858;DHT22;10589;53.636;10.012;2023-12-07T06:26:33;1.10;99.90
20858;DHT22;10589;53.636;10.012;2023-12-07T06:28:59;1.10;99.90
20858;DHT22;10589;53.636;10.012;2023-12-07T06:31:24;1.10;99.90
20858;DHT22;10589;53.636;10.012;2023-12-07T06:33:50;1.10;99.90
20858;DHT22;10589;53.636;10.012;2023-12-07T06:36:21;1.10;99.90
20858;DHT22;10589;53.636;10.012;2023-12-07T06:38:47;1.20;99.90
20858;DHT22;10589;53.636;10.012;2023-12-07T06:41:14;1.20;99.90
20858;DHT22;10589;53.636;10.012;2023-12-07T06:43:41;1.20;99.90
20858;DHT22;10589;53.636;10.012;2023-12-07T06:46:06;1.20;99.90
20858;DHT22;10589;53.636;10.012;2023-12-07T06:48:32;1.30;99.90
20858;DHT22;10589;53.636;10.012;2023-12-07T06:50:58;1.40;99.90
20858;DHT22;10589;53.636;10.012;2023-12-07T06:53:23;1.40;99.90
20858;DHT22;10589;53.636;10.012;2023-12-07T06:55:49;1.40;99.90
20858;DHT22;10589;53.636;10.012;2023-12-07T06:58:15;1.40;99.90
20858;DHT22;10589;53.636;10.012;2023-12-07T07:00:40;1.40;99.90
20858;DHT22;10589;53.636;10.012;2023-12-07T07:03:06;1.40;99.90
20858;DHT22;10589;53.636;10.012;2023-12-07T07:05:32;1.30;99.90
20858;DHT22;10589;53.636;10.012;2023-12-07T07:07:57;1.30;99.90
20858;DHT22;10589;53.636;10.012;2023-12-07T07:10:23;1.30;99.90
20858;DHT22;10589;53.636;10.012;2023-12-07T07:12:50;1.30;99.90
20858;DHT22;10589;53.636;10.012;2023-12-07T07:15:15;1.40;99.90
20858;DHT22;10589;53.636;10.012;2023-12-07T07:17:41;1.40;99.90
20858;DHT22;10589;53.636;10.012;2023-12-07T07:20:07;1.40;99.90
20858;DHT22;10589;53.636;10.012;2023-12-07T07:22:33;1.40;99.90
20858;DHT22;10589;53.636;10.012;2023-12-07T07:25:00;1.40;99.90
20858;DHT22;10589;53.636;10.012;2023-12-07T07:27:25;1.40;99.90
20858;DHT22;10589;53.636;10.012;2023-12-07T07:29:51;1.50;99.90
20858;DHT22;10589;53.636;10.012;2023-12-07T07:32:17;1.50;99.90
20858;DHT22;10589;53.636;10.012;2023-12-07T07:34:43;1.50;99.90
20858;DHT22;10589;53.636;10.012;2023-12-07T07:37:08;1.60;99.90
20858;DHT22;10589;53.636;10.012;2023-12-07T07:39:34;1.60;99.90
20858;DHT22;10589;53.636;10.012;2023-12-07T07:42:00;1.70;99.90
20858;DHT22;10589;53.636;10.012;2023-12-07T07:44:25;1.70;99.90
20858;DHT22;10589;53.636;10.012;2023-12-07T07:46:51;1.60;99.90
20858;DHT22;10589;53.636;10.012;2023-12-07T07:49:17;1.60;99.90
20858;DHT22;10589;53.636;10.012;2023-12-07T07:51:42;1.50;99.90
20858;DHT22;10589;53.636;10.012;2023-12-07T07:54:08;1.70;99.90
20858;DHT22;10589;53.636;10.012;2023-12-07T07:56:33;1.60;99.90
20858;DHT22;10589;53.636;10.012;2023-12-07T07:58:59;1.60;99.90
20858;DHT22;10589;53.636;10.012;2023-12-07T08:01:26;1.70;99.90
20858;DHT22;10589;53.636;10.012;2023-12-07T08:03:52;1.70;99.90
20858;DHT22;10589;53.636;10.012;2023-12-07T08:06:17;1.60;99.90
20858;DHT22;10589;53.636;10.012;2023-12-07T08:08:44;1.60;99.90
20858;DHT22;10589;53.636;10.012;2023-12-07T08:11:09;1.60;99.90
20858;DHT22;10589;53.636;10.012;2023-12-07T08:13:35;1.50;99.90
20858;DHT22;10589;53.636;10.012;2023-12-07T08:16:01;1.60;99.90
20858;DHT22;10589;53.636;10.012;2023-12-07T08:18:26;1.70;99.90
20858;DHT22;10589;53.636;10.012;2023-12-07T08:20:52;1.80;99.90
20858;DHT22;10589;53.636;10.012;2023-12-07T08:23:18;1.80;99.90
20858;DHT22;10589;53.636;10.012;2023-12-07T08:25:43;1.70;99.90
20858;DHT22;10589;53.636;10.012;2023-12-07T08:28:09;1.70;99.90
20858;DHT22;10589;53.636;10.012;2023-12-07T08:30:35;1.80;99.90
20858;DHT22;10589;53.636;10.012;2023-12-07T08:33:01;1.70;99.90
20858;DHT22;10589;53.636;10.012;2023-12-07T08:35:27;1.90;99.90
20858;DHT22;10589;53.636;10.012;2023-12-07T08:37:53;1.80;99.90
20858;DHT22;10589;53.636;10.012;2023-12-07T08:40:19;1.90;99.90
20858;DHT22;10589;53.636;10.012;2023-12-07T08:42:46;2.00;99.90
20858;DHT22;10589;53.636;10.012;2023-12-07T08:45:11;1.90;99.90
20858;DHT22;10589;53.636;10.012;2023-12-07T08:47:39;1.80;99.90
20858;DHT22;10589;53.636;10.012;2023-12-07T08:50:05;1.80;99.90
20858;DHT22;10589;53.636;10.012;2023-12-07T08:52:33;1.90;99.90
20858;DHT22;10589;53.636;10.012;2023-12-07T08:54:58;1.90;99.90
20858;DHT22;10589;53.636;10.012;2023-12-07T08:57:24;2.00;99.90
20858;DHT22;10589;53.636;10.012;2023-12-07T08:59:50;2.00;99.90
20858;DHT22;10589;53.636;10.012;2023-12-07T09:02:15;2.00;99.90
20858;DHT22;10589;53.636;10.012;2023-12-07T09:04:41;2.00;99.90
20858;DHT22;10589;53.636;10.012;2023-12-07T09:07:06;2.10;99.90
20858;DHT22;10589;53.636;10.012;2023-12-07T09:09:32;2.20;99.90
20858;DHT22;10589;53.636;10.012;2023-12-07T09:11:58;2.20;99.90
20858;DHT22;10589;53.636;10.012;2023-12-07T09:14:23;2.20;99.90
20858;DHT22;10589;53.636;10.012;2023-12-07T09:16:49;2.30;99.90
20858;DHT22;10589;53.636;10.012;2023-12-07T09:19:14;2.30;99.90
20858;DHT22;10589;53.636;10.012;2023-12-07T09:21:40;2.20;99.90
20858;DHT22;10589;53.636;10.012;2023-12-07T09:24:06;2.10;99.90
20858;DHT22;10589;53.636;10.012;2023-12-07T09:26:32;2.00;99.90
20858;DHT22;10589;53.636;10.012;2023-12-07T09:28:58;2.00;99.90
20858;DHT22;10589;53.636;10.012;2023-12-07T09:31:23;2.10;99.90
20858;DHT22;10589;53.636;10.012;2023-12-07T09:33:49;2.10;99.90
20858;DHT22;10589;53.636;10.012;2023-12-07T09:36:18;2.00;99.90
20858;DHT22;10589;53.636;10.012;2023-12-07T09:38:44;2.00;99.90
20858;DHT22;10589;53.636;10.012;2023-12-07T09:41:10;2.10;99.90
20858;DHT22;10589;53.636;10.012;2023-12-07T09:43:36;2.10;99.90
20858;DHT22;10589;53.636;10.012;2023-12-07T09:46:02;2.20;99.90
20858;DHT22;10589;53.636;10.012;2023-12-07T09:48:29;2.20;99.90
20858;DHT22;10589;53.636;10.012;2023-12-07T09:50:56;2.30;99.90
20858;DHT22;10589;53.636;10.012;2023-12-07T09:53:22;2.30;99.90
20858;DHT22;10589;53.636;10.012;2023-12-07T09:55:48;2.30;99.90
20858;DHT22;10589;53.636;10.012;2023-12-07T09:58:14;2.40;99.90
20858;DHT22;10589;53.636;10.012;2023-12-07T10:00:39;2.40;99.90
20858;DHT22;10589;53.636;10.012;2023-12-07T10:03:05;2.50;99.90
20858;DHT22;10589;53.636;10.012;2023-12-07T10:05:34;2.50;99.90
20858;DHT22;10589;53.636;10.012;2023-12-07T10:11:06;2.70;99.90
20858;DHT22;10589;53.636;10.012;2023-12-07T10:13:33;2.80;99.90
20858;DHT22;10589;53.636;10.012;2023-12-07T10:16:10;2.90;99.90
20858;DHT22;10589;53.636;10.012;2023-12-07T10:18:37;3.00;99.90
20858;DHT22;10589;53.636;10.012;2023-12-07T10:21:05;3.00;99.90
20858;DHT22;10589;53.636;10.012;2023-12-07T10:23:30;3.00;99.90
20858;DHT22;10589;53.636;10.012;2023-12-07T10:25:58;3.00;99.90
20858;DHT22;10589;53.636;10.012;2023-12-07T10:28:24;3.00;99.90
20858;DHT22;10589;53.636;10.012;2023-12-07T10:30:50;3.00;99.90
20858;DHT22;10589;53.636;10.012;2023-12-07T10:33:16;3.10;99.90
20858;DHT22;10589;53.636;10.012;2023-12-07T10:35:42;3.00;99.90
20858;DHT22;10589;53.636;10.012;2023-12-07T10:38:09;3.00;99.90
20858;DHT22;10589;53.636;10.012;2023-12-07T10:40:35;3.00;99.90
20858;DHT22;10589;53.636;10.012;2023-12-07T10:43:05;3.10;99.90
20858;DHT22;10589;53.636;10.012;2023-12-07T10:45:30;3.10;99.90
20858;DHT22;10589;53.636;10.012;2023-12-07T10:48:07;3.10;99.90
20858;DHT22;10589;53.636;10.012;2023-12-07T10:50:36;3.00;99.90
20858;DHT22;10589;53.636;10.012;2023-12-07T10:53:28;3.00;99.90
20858;DHT22;10589;53.636;10.012;2023-12-07T10:55:56;2.80;99.90
20858;DHT22;10589;53.636;10.012;2023-12-07T10:58:25;2.70;99.90
20858;DHT22;10589;53.636;10.012;2023-12-07T11:00:55;2.60;99.90
20858;DHT22;10589;53.636;10.012;2023-12-07T11:03:21;2.60;99.90
20858;DHT22;10589;53.636;10.012;2023-12-07T11:05:50;2.60;99.90
20858;DHT22;10589;53.636;10.012;2023-12-07T11:13:35;2.30;99.90
20858;DHT22;10589;53.636;10.012;2023-12-07T11:16:01;2.30;99.90
20858;DHT22;10589;53.636;10.012;2023-12-07T11:18:28;2.30;99.90
20858;DHT22;10589;53.636;10.012;2023-12-07T11:20:57;2.30;99.90
20858;DHT22;10589;53.636;10.012;2023-12-07T11:23:23;2.30;99.90
20858;DHT22;10589;53.636;10.012;2023-12-07T11:25:52;2.30;99.90
20858;DHT22;10589;53.636;10.012;2023-12-07T11:28:37;2.30;99.90
20858;DHT22;10589;53.636;10.012;2023-12-07T11:31:06;2.30;99.90
20858;DHT22;10589;53.636;10.012;2023-12-07T11:33:32;2.30;99.90
20858;DHT22;10589;53.636;10.012;2023-12-07T11:36:06;2.30;99.90
20858;DHT22;10589;53.636;10.012;2023-12-07T11:38:32;2.40;99.90
20858;DHT22;10589;53.636;10.012;2023-12-07T11:40:58;2.50;99.90
20858;DHT22;10589;53.636;10.012;2023-12-07T11:43:45;2.50;99.90
20858;DHT22;10589;53.636;10.012;2023-12-07T11:46:11;2.50;99.90
20858;DHT22;10589;53.636;10.012;2023-12-07T11:48:38;2.60;99.90
20858;DHT22;10589;53.636;10.012;2023-12-07T11:51:07;2.70;99.90
20858;DHT22;10589;53.636;10.012;2023-12-07T11:53:34;2.60;99.90
20858;DHT22;10589;53.636;10.012;2023-12-07T11:56:05;2.60;99.90
20858;DHT22;10589;53.636;10.012;2023-12-07T11:58:33;2.50;99.90
20858;DHT22;10589;53.636;10.012;2023-12-07T12:00:59;2.50;99.90
20858;DHT22;10589;53.636;10.012;2023-12-07T12:03:29;2.60;99.90
20858;DHT22;10589;53.636;10.012;2023-12-07T12:05:55;2.50;99.90
20858;DHT22;10589;53.636;10.012;2023-12-07T12:08:21;2.60;99.90
20858;DHT22;10589;53.636;10.012;2023-12-07T12:10:49;2.60;99.90
20858;DHT22;10589;53.636;10.012;2023-12-07T12:13:16;2.50;99.90
20858;DHT22;10589;53.636;10.012;2023-12-07T12:15:42;2.50;99.90
20858;DHT22;10589;53.636;10.012;2023-12-07T12:18:08;2.50;99.90
20858;DHT22;10589;53.636;10.012;2023-12-07T12:20:35;2.50;99.90
20858;DHT22;10589;53.636;10.012;2023-12-07T12:23:01;2.50;99.90
20858;DHT22;10589;53.636;10.012;2023-12-07T12:25:28;2.60;99.90
20858;DHT22;10589;53.636;10.012;2023-12-07T12:28:03;2.50;99.90
20858;DHT22;10589;53.636;10.012;2023-12-07T12:30:30;2.40;99.90
20858;DHT22;10589;53.636;10.012;2023-12-07T12:32:56;2.40;99.90
20858;DHT22;10589;53.636;10.012;2023-12-07T12:35:22;2.40;99.90
20858;DHT22;10589;53.636;10.012;2023-12-07T12:37:49;2.40;99.90
20858;DHT22;10589;53.636;10.012;2023-12-07T12:40:17;2.40;99.90
20858;DHT22;10589;53.636;10.012;2023-12-07T12:42:50;2.40;99.90
20858;DHT22;10589;53.636;10.012;2023-12-07T12:45:16;2.40;99.90
20858;DHT22;10589;53.636;10.012;2023-12-07T12:47:44;2.50;99.90
20858;DHT22;10589;53.636;10.012;2023-12-07T12:50:37;2.40;99.90
20858;DHT22;10589;53.636;10.012;2023-12-07T12:53:04;2.40;99.90
20858;DHT22;10589;53.636;10.012;2023-12-07T12:55:32;2.40;99.90
20858;DHT22;10589;53.636;10.012;2023-12-07T12:57:58;2.40;99.90
20858;DHT22;10589;53.636;10.012;2023-12-07T13:00:27;2.50;99.90
20858;DHT22;10589;53.636;10.012;2023-12-07T13:02:53;2.40;99.90
20858;DHT22;10589;53.636;10.012;2023-12-07T13:05:18;2.40;99.90
20858;DHT22;10589;53.636;10.012;2023-12-07T13:07:44;2.40;99.90
20858;DHT22;10589;53.636;10.012;2023-12-07T13:10:10;2.40;99.90
20858;DHT22;10589;53.636;10.012;2023-12-07T13:12:36;2.40;99.90
20858;DHT22;10589;53.636;10.012;2023-12-07T13:15:01;2.40;99.90
20858;DHT22;10589;53.636;10.012;2023-12-07T13:17:27;2.40;99.90
20858;DHT22;10589;53.636;10.012;2023-12-07T13:19:53;2.40;99.90
20858;DHT22;10589;53.636;10.012;2023-12-07T13:22:19;2.40;99.90
20858;DHT22;10589;53.636;10.012;2023-12-07T13:24:47;2.30;99.90
20858;DHT22;10589;53.636;10.012;2023-12-07T13:27:13;2.40;99.90
20858;DHT22;10589;53.636;10.012;2023-12-07T13:29:41;2.40;99.90
20858;DHT22;10589;53.636;10.012;2023-12-07T13:32:06;2.40;99.90
20858;DHT22;10589;53.636;10.012;2023-12-07T13:34:32;2.30;99.90
20858;DHT22;10589;53.636;10.012;2023-12-07T13:36:58;2.30;99.90
20858;DHT22;10589;53.636;10.012;2023-12-07T13:39:24;2.30;99.90
20858;DHT22;10589;53.636;10.012;2023-12-07T13:41:52;2.20;99.90
20858;DHT22;10589;53.636;10.012;2023-12-07T13:44:17;2.20;99.90
20858;DHT22;10589;53.636;10.012;2023-12-07T13:46:44;2.10;99.90
20858;DHT22;10589;53.636;10.012;2023-12-07T13:49:10;2.10;99.90
20858;DHT22;10589;53.636;10.012;2023-12-07T13:51:37;2.10;99.90
20858;DHT22;10589;53.636;10.012;2023-12-07T13:54:03;2.10;99.90
20858;DHT22;10589;53.636;10.012;2023-12-07T13:56:28;2.10;99.90
20858;DHT22;10589;53.636;10.012;2023-12-07T13:58:54;2.10;99.90
20858;DHT22;10589;53.636;10.012;2023-12-07T14:01:20;2.00;99.90
20858;DHT22;10589;53.636;10.012;2023-12-07T14:03:46;2.00;99.90
20858;DHT22;10589;53.636;10.012;2023-12-07T14:06:20;2.00;99.90
20858;DHT22;10589;53.636;10.012;2023-12-07T14:08:46;2.00;99.90
20858;DHT22;10589;53.636;10.012;2023-12-07T14:11:11;1.80;99.90
20858;DHT22;10589;53.636;10.012;2023-12-07T14:13:38;1.80;99.90
20858;DHT22;10589;53.636;10.012;2023-12-07T14:16:04;1.90;99.90
20858;DHT22;10589;53.636;10.012;2023-12-07T14:18:29;1.80;99.90
20858;DHT22;10589;53.636;10.012;2023-12-07T14:20:55;1.70;99.90
20858;DHT22;10589;53.636;10.012;2023-12-07T14:23:22;1.70;99.90
20858;DHT22;10589;53.636;10.012;2023-12-07T14:25:48;1.60;99.90
20858;DHT22;10589;53.636;10.012;2023-12-07T14:28:16;1.50;99.90
20858;DHT22;10589;53.636;10.012;2023-12-07T14:30:42;1.50;99.90
20858;DHT22;10589;53.636;10.012;2023-12-07T14:33:09;1.50;99.90
20858;DHT22;10589;53.636;10.012;2023-12-07T14:35:34;1.50;99.90
20858;DHT22;10589;53.636;10.012;2023-12-07T14:38:00;1.50;99.90
20858;DHT22;10589;53.636;10.012;2023-12-07T14:40:25;1.50;99.90
20858;DHT22;10589;53.636;10.012;2023-12-07T14:42:51;1.40;99.90
20858;DHT22;10589;53.636;10.012;2023-12-07T14:45:16;1.40;99.90
20858;DHT22;10589;53.636;10.012;2023-12-07T14:47:45;1.40;99.90
20858;DHT22;10589;53.636;10.012;2023-12-07T14:50:11;1.40;99.90
20858;DHT22;10589;53.636;10.012;2023-12-07T14:52:37;1.50;99.90
20858;DHT22;10589;53.636;10.012;2023-12-07T14:55:04;1.60;99.90
20858;DHT22;10589;53.636;10.012;2023-12-07T14:57:30;1.60;99.90
20858;DHT22;10589;53.636;10.012;2023-12-07T14:59:56;1.60;99.90
20858;DHT22;10589;53.636;10.012;2023-12-07T15:02:24;1.60;99.90
20858;DHT22;10589;53.636;10.012;2023-12-07T15:04:49;1.60;99.90
20858;DHT22;10589;53.636;10.012;2023-12-07T15:07:15;1.70;99.90
20858;DHT22;10589;53.636;10.012;2023-12-07T15:09:42;1.70;99.90
20858;DHT22;10589;53.636;10.012;2023-12-07T15:12:07;1.70;99.90
20858;DHT22;10589;53.636;10.012;2023-12-07T15:14:33;1.60;99.90
20858;DHT22;10589;53.636;10.012;2023-12-07T15:16:59;1.60;99.90
20858;DHT22;10589;53.636;10.012;2023-12-07T15:19:24;1.60;99.90
20858;DHT22;10589;53.636;10.012;2023-12-07T15:21:50;1.60;99.90
20858;DHT22;10589;53.636;10.012;2023-12-07T15:24:16;1.60;99.90
20858;DHT22;10589;53.636;10.012;2023-12-07T15:26:42;1.50;99.90
20858;DHT22;10589;53.636;10.012;2023-12-07T15:29:09;1.50;99.90
20858;DHT22;10589;53.636;10.012;2023-12-07T15:31:35;1.50;99.90
20858;DHT22;10589;53.636;10.012;2023-12-07T15:34:00;1.50;99.90
20858;DHT22;10589;53.636;10.012;2023-12-07T15:36:26;1.60;99.90
20858;DHT22;10589;53.636;10.012;2023-12-07T15:38:51;1.50;99.90
20858;DHT22;10589;53.636;10.012;2023-12-07T15:41:18;1.60;99.90
20858;DHT22;10589;53.636;10.012;2023-12-07T15:43:44;1.50;99.90
20858;DHT22;10589;53.636;10.012;2023-12-07T15:46:09;1.50;99.90
20858;DHT22;10589;53.636;10.012;2023-12-07T15:48:35;1.50;99.90
20858;DHT22;10589;53.636;10.012;2023-12-07T15:51:00;1.40;99.90
20858;DHT22;10589;53.636;10.012;2023-12-07T15:53:26;1.40;99.90
20858;DHT22;10589;53.636;10.012;2023-12-07T15:55:54;1.50;99.90
20858;DHT22;10589;53.636;10.012;2023-12-07T15:58:19;1.40;99.90
20858;DHT22;10589;53.636;10.012;2023-12-07T16:00:45;1.40;99.90
20858;DHT22;10589;53.636;10.012;2023-12-07T16:03:11;1.40;99.90
20858;DHT22;10589;53.636;10.012;2023-12-07T16:05:36;1.50;99.90
20858;DHT22;10589;53.636;10.012;2023-12-07T16:08:02;1.50;99.90
20858;DHT22;10589;53.636;10.012;2023-12-07T16:10:28;1.60;99.90
20858;DHT22;10589;53.636;10.012;2023-12-07T16:12:54;1.50;99.90
20858;DHT22;10589;53.636;10.012;2023-12-07T16:15:19;1.50;99.90
20858;DHT22;10589;53.636;10.012;2023-12-07T16:17:45;1.40;99.90
20858;DHT22;10589;53.636;10.012;2023-12-07T16:20:11;1.50;99.90
20858;DHT22;10589;53.636;10.012;2023-12-07T16:22:40;1.50;99.90
20858;DHT22;10589;53.636;10.012;2023-12-07T16:25:06;1.50;99.90
20858;DHT22;10589;53.636;10.012;2023-12-07T16:27:32;1.60;99.90
20858;DHT22;10589;53.636;10.012;2023-12-07T16:29:57;1.60;99.90
20858;DHT22;10589;53.636;10.012;2023-12-07T16:32:23;1.70;99.90
20858;DHT22;10589;53.636;10.012;2023-12-07T16:34:48;1.80;99.90
20858;DHT22;10589;53.636;10.012;2023-12-07T16:37:14;1.80;99.90
20858;DHT22;10589;53.636;10.012;2023-12-07T16:39:43;1.80;99.90
20858;DHT22;10589;53.636;10.012;2023-12-07T16:42:10;1.80;99.90
20858;DHT22;10589;53.636;10.012;2023-12-07T16:44:36;1.80;99.90
20858;DHT22;10589;53.636;10.012;2023-12-07T16:47:02;1.80;99.90
20858;DHT22;10589;53.636;10.012;2023-12-07T16:49:27;1.80;99.90
20858;DHT22;10589;53.636;10.012;2023-12-07T16:51:53;1.80;99.90
20858;DHT22;10589;53.636;10.012;2023-12-07T16:54:19;1.80;99.90
20858;DHT22;10589;53.636;10.012;2023-12-07T16:56:45;1.80;99.90
20858;DHT22;10589;53.636;10.012;2023-12-07T16:59:10;1.80;99.90
20858;DHT22;10589;53.636;10.012;2023-12-07T17:01:36;1.90;99.90
20858;DHT22;10589;53.636;10.012;2023-12-07T17:04:01;1.80;99.90
20858;DHT22;10589;53.636;10.012;2023-12-07T17:06:27;1.80;99.90
20858;DHT22;10589;53.636;10.012;2023-12-07T17:08:52;1.80;99.90
20858;DHT22;10589;53.636;10.012;2023-12-07T17:11:21;1.80;99.90
20858;DHT22;10589;53.636;10.012;2023-12-07T17:13:47;1.80;99.90
20858;DHT22;10589;53.636;10.012;2023-12-07T17:16:14;1.80;99.90
20858;DHT22;10589;53.636;10.012;2023-12-07T17:18:39;1.80;99.90
20858;DHT22;10589;53.636;10.012;2023-12-07T17:21:05;1.80;99.90
20858;DHT22;10589;53.636;10.012;2023-12-07T17:23:31;1.80;99.90
20858;DHT22;10589;53.636;10.012;2023-12-07T17:25:58;1.80;99.90
20858;DHT22;10589;53.636;10.012;2023-12-07T17:28:23;1.80;99.90
20858;DHT22;10589;53.636;10.012;2023-12-07T17:30:49;1.80;99.90
20858;DHT22;10589;53.636;10.012;2023-12-07T17:33:14;1.80;99.90
20858;DHT22;10589;53.636;10.012;2023-12-07T17:35:40;1.70;99.90
20858;DHT22;10589;53.636;10.012;2023-12-07T17:38:05;1.80;99.90
20858;DHT22;10589;53.636;10.012;2023-12-07T17:40:32;1.80;99.90
20858;DHT22;10589;53.636;10.012;2023-12-07T17:42:57;1.80;99.90
20858;DHT22;10589;53.636;10.012;2023-12-07T17:45:23;1.70;99.90
20858;DHT22;10589;53.636;10.012;2023-12-07T17:47:48;1.70;99.90
20858;DHT22;10589;53.636;10.012;2023-12-07T17:50:14;1.70;99.90
20858;DHT22;10589;53.636;10.012;2023-12-07T17:52:40;1.70;99.90
20858;DHT22;10589;53.636;10.012;2023-12-07T17:55:05;1.70;99.90
20858;DHT22;10589;53.636;10.012;2023-12-07T17:57:33;1.70;99.90
20858;DHT22;10589;53.636;10.012;2023-12-07T17:59:58;1.70;99.90
20858;DHT22;10589;53.636;10.012;2023-12-07T18:02:24;1.70;99.90
20858;DHT22;10589;53.636;10.012;2023-12-07T18:04:50;1.70;99.90
20858;DHT22;10589;53.636;10.012;2023-12-07T18:07:16;1.70;99.90
20858;DHT22;10589;53.636;10.012;2023-12-07T18:09:42;1.60;99.90
20858;DHT22;10589;53.636;10.012;2023-12-07T18:12:07;1.60;99.90
20858;DHT22;10589;53.636;10.012;2023-12-07T18:14:33;1.60;99.90
20858;DHT22;10589;53.636;10.012;2023-12-07T18:17:00;1.60;99.90
20858;DHT22;10589;53.636;10.012;2023-12-07T18:19:25;1.60;99.90
20858;DHT22;10589;53.636;10.012;2023-12-07T18:21:51;1.60;99.90
20858;DHT22;10589;53.636;10.012;2023-12-07T18:24:18;1.60;99.90
20858;DHT22;10589;53.636;10.012;2023-12-07T18:26:44;1.60;99.90
20858;DHT22;10589;53.636;10.012;2023-12-07T18:29:09;1.60;99.90
20858;DHT22;10589;53.636;10.012;2023-12-07T18:31:35;1.60;99.90
20858;DHT22;10589;53.636;10.012;2023-12-07T18:34:01;1.60;99.90
20858;DHT22;10589;53.636;10.012;2023-12-07T18:36:26;1.50;99.90
20858;DHT22;10589;53.636;10.012;2023-12-07T18:38:52;1.50;99.90
20858;DHT22;10589;53.636;10.012;2023-12-07T18:41:18;1.50;99.90
20858;DHT22;10589;53.636;10.012;2023-12-07T18:43:43;1.50;99.90
20858;DHT22;10589;53.636;10.012;2023-12-07T18:46:09;1.50;99.90
20858;DHT22;10589;53.636;10.012;2023-12-07T18:48:35;1.50;99.90
20858;DHT22;10589;53.636;10.012;2023-12-07T18:51:04;1.50;99.90
20858;DHT22;10589;53.636;10.012;2023-12-07T18:53:30;1.50;99.90
20858;DHT22;10589;53.636;10.012;2023-12-07T18:55:57;1.50;99.90
20858;DHT22;10589;53.636;10.012;2023-12-07T18:58:24;1.50;99.90
20858;DHT22;10589;53.636;10.012;2023-12-07T19:00:52;1.50;99.90
20858;DHT22;10589;53.636;10.012;2023-12-07T19:03:19;1.50;99.90
20858;DHT22;10589;53.636;10.012;2023-12-07T19:05:45;1.50;99.90
20858;DHT22;10589;53.636;10.012;2023-12-07T19:08:11;1.50;99.90
20858;DHT22;10589;53.636;10.012;2023-12-07T19:10:37;1.50;99.90
20858;DHT22;10589;53.636;10.012;2023-12-07T19:13:06;1.50;99.90
20858;DHT22;10589;53.636;10.012;2023-12-07T19:15:32;1.50;99.90
20858;DHT22;10589;53.636;10.012;2023-12-07T19:17:57;1.50;99.90
20858;DHT22;10589;53.636;10.012;2023-12-07T19:20:23;1.50;99.90
20858;DHT22;10589;53.636;10.012;2023-12-07T19:22:51;1.50;99.90
20858;DHT22;10589;53.636;10.012;2023-12-07T19:25:17;1.50;99.90
20858;DHT22;10589;53.636;10.012;2023-12-07T19:27:43;1.50;99.90
20858;DHT22;10589;53.636;10.012;2023-12-07T19:30:09;1.50;99.90
20858;DHT22;10589;53.636;10.012;2023-12-07T19:32:35;1.40;99.90
20858;DHT22;10589;53.636;10.012;2023-12-07T19:35:00;1.50;99.90
20858;DHT22;10589;53.636;10.012;2023-12-07T19:37:27;1.40;99.90
20858;DHT22;10589;53.636;10.012;2023-12-07T19:39:54;1.40;99.90
20858;DHT22;10589;53.636;10.012;2023-12-07T19:42:20;1.40;99.90
20858;DHT22;10589;53.636;10.012;2023-12-07T19:44:46;1.40;99.90
20858;DHT22;10589;53.636;10.012;2023-12-07T19:47:11;1.40;99.90
20858;DHT22;10589;53.636;10.012;2023-12-07T19:49:37;1.40;99.90
20858;DHT22;10589;53.636;10.012;2023-12-07T19:52:03;1.40;99.90
20858;DHT22;10589;53.636;10.012;2023-12-07T19:54:29;1.40;99.90
20858;DHT22;10589;53.636;10.012;2023-12-07T19:56:54;1.40;99.90
20858;DHT22;10589;53.636;10.012;2023-12-07T19:59:22;1.40;99.90
20858;DHT22;10589;53.636;10.012;2023-12-07T20:01:48;1.40;99.90
20858;DHT22;10589;53.636;10.012;2023-12-07T20:04:14;1.50;99.90
20858;DHT22;10589;53.636;10.012;2023-12-07T20:06:40;1.50;99.90
20858;DHT22;10589;53.636;10.012;2023-12-07T20:09:06;1.50;99.90
20858;DHT22;10589;53.636;10.012;2023-12-07T20:11:34;1.50;99.90
20858;DHT22;10589;53.636;10.012;2023-12-07T20:14:02;1.50;99.90
20858;DHT22;10589;53.636;10.012;2023-12-07T20:16:28;1.50;99.90
20858;DHT22;10589;53.636;10.012;2023-12-07T20:18:53;1.50;99.90